Time;durP1;ratioP1;P1;durP2;ratioP2;P2;SDS_P1;SDS_P2;PMS_P1;PMS_P2;Temp;Humidity;BMP_temperature;BMP_pressure;BME280_temperature;BME280_humidity;BME280_pressure;Samples;Min_cycle;Max_cycle;Signal;HPM_P1;HPM_P2
2021/07/24 00:02:05;;;;;;;22.50;17.87;;;;;;;17.49;78.35;98891.76;124984;1093;64184;-83
2021/07/24 00:04:32;;;;;;;19.30;17.30;;;;;;;17.45;77.91;98890.34;124865;1093;64411;-83
2021/07/24 00:07:00;;;;;;;19.33;17.43;;;;;;;17.42;78.14;98896.88;124869;1093;64344;-83
2021/07/24 00:09:30;;;;;;;18.57;16.67;;;;;;;17.40;78.27;98890.78;124877;1093;64287;-83
2021/07/24 00:11:57;;;;;;;18.70;16.70;;;;;;;17.42;78.83;98886.10;124918;1093;64264;-83
2021/07/24 00:14:25;;;;;;;19.60;17.00;;;;;;;17.43;78.84;98886.94;124886;1092;64278;-83
2021/07/24 00:16:52;;;;;;;19.03;17.03;;;;;;;17.44;78.70;98888.66;124838;1093;64376;-84
2021/07/24 00:19:19;;;;;;;20.57;18.53;;;;;;;17.41;78.41;98884.41;124896;1093;64325;-83
2021/07/24 00:21:47;;;;;;;19.70;17.70;;;;;;;17.34;78.65;98881.45;124886;1093;64282;-83
2021/07/24 00:24:14;;;;;;;19.67;17.57;;;;;;;17.29;78.35;98883.74;124839;1093;64123;-83
2021/07/24 00:26:42;;;;;;;20.63;18.50;;;;;;;17.23;78.43;98878.95;124854;1093;64245;-83
2021/07/24 00:29:09;;;;;;;18.50;16.80;;;;;;;17.14;78.56;98877.17;124846;1093;64425;-83
2021/07/24 00:31:37;;;;;;;18.50;16.40;;;;;;;17.03;78.75;98880.86;124839;1093;64273;-83
2021/07/24 00:34:04;;;;;;;19.13;17.10;;;;;;;16.94;78.80;98880.91;124886;1093;64267;-83
2021/07/24 00:36:31;;;;;;;19.33;17.33;;;;;;;16.83;79.24;98873.86;124836;1093;64215;-83
2021/07/24 00:38:58;;;;;;;21.03;17.10;;;;;;;16.76;79.46;98878.08;124845;1093;64306;-83
2021/07/24 00:42:03;;;;;;;22.97;16.90;;;;;;;16.72;79.44;98879.34;124802;1093;64264;-83
2021/07/24 00:44:32;;;;;;;19.30;17.30;;;;;;;16.70;79.50;98884.05;124817;1093;64271;-83
2021/07/24 00:47:02;;;;;;;19.90;17.73;;;;;;;16.69;80.04;98888.55;124929;1093;64239;-83
2021/07/24 00:49:32;;;;;;;19.15;17.25;;;;;;;16.72;80.18;98890.11;124926;1093;64680;-83
2021/07/24 00:52:00;;;;;;;19.73;16.63;;;;;;;16.71;79.84;98885.73;124910;1093;64313;-83
2021/07/24 00:54:30;;;;;;;18.53;16.60;;;;;;;16.70;79.99;98882.20;124899;1093;64425;-83
2021/07/24 00:56:57;;;;;;;19.93;17.93;;;;;;;16.62;79.79;98882.92;124861;1092;64335;-83
2021/07/24 00:59:24;;;;;;;20.37;18.27;;;;;;;16.57;80.14;98887.04;124884;1093;64241;-83
2021/07/24 01:01:52;;;;;;;20.83;18.63;;;;;;;16.54;80.16;98885.48;124885;1091;64297;-83
2021/07/24 01:04:20;;;;;;;21.93;19.10;;;;;;;16.48;80.08;98883.34;124878;1093;64245;-83
2021/07/24 01:06:49;;;;;;;19.43;17.33;;;;;;;16.40;80.08;98886.77;124854;1093;64412;-83
2021/07/24 01:09:16;;;;;;;19.63;16.90;;;;;;;16.32;80.17;98877.70;124905;1093;64281;-83
2021/07/24 01:11:44;;;;;;;18.60;16.57;;;;;;;16.26;80.17;98871.05;124878;1093;64290;-83
2021/07/24 01:14:11;;;;;;;18.17;16.23;;;;;;;16.21;80.40;98873.31;124892;1093;64280;-83
2021/07/24 01:16:38;;;;;;;20.50;18.40;;;;;;;16.16;80.76;98883.64;124852;1093;64335;-83
2021/07/24 01:19:06;;;;;;;19.83;17.77;;;;;;;16.13;80.83;98882.08;124854;1091;64284;-83
2021/07/24 01:21:33;;;;;;;18.30;16.40;;;;;;;16.13;80.79;98883.92;124850;1093;64262;-83
2021/07/24 01:24:00;;;;;;;18.05;16.20;;;;;;;16.11;81.02;98877.84;124907;1093;64265;-83
2021/07/24 01:26:30;;;;;;;18.90;17.00;;;;;;;16.11;81.23;98875.14;124900;1093;64268;-83
2021/07/24 01:28:57;;;;;;;19.38;17.30;;;;;;;16.08;81.32;98884.34;124952;1093;64188;-83
2021/07/24 01:31:24;;;;;;;18.95;16.95;;;;;;;16.02;81.17;98877.69;124910;1093;64933;-83
2021/07/24 01:33:51;;;;;;;18.07;16.20;;;;;;;15.92;81.19;98871.45;124870;1093;64316;-83
2021/07/24 01:36:19;;;;;;;18.47;16.27;;;;;;;15.87;81.25;98878.23;124871;1093;64231;-83
2021/07/24 01:38:46;;;;;;;19.13;15.60;;;;;;;15.82;81.29;98870.59;124887;1093;64295;-83
2021/07/24 01:41:15;;;;;;;18.53;16.63;;;;;;;15.75;81.51;98870.31;124930;1093;64287;-83
2021/07/24 01:43:42;;;;;;;18.10;16.27;;;;;;;15.69;81.86;98865.50;124999;1093;64279;-83
2021/07/24 01:46:09;;;;;;;18.13;16.30;;;;;;;15.67;81.81;98859.38;124894;1093;64214;-83
2021/07/24 01:48:43;;;;;;;18.23;15.43;;;;;;;15.68;81.93;98862.91;124905;1093;64245;-83
2021/07/24 01:54:01;;;;;;;17.60;14.70;;;;;;;15.62;82.02;98852.72;124837;1092;64340;-83
2021/07/24 01:56:33;;;;;;;17.20;14.45;;;;;;;15.58;82.17;98861.03;124852;1094;64340;-83
2021/07/24 01:59:00;;;;;;;15.70;14.05;;;;;;;15.59;82.39;98860.06;124870;1093;64271;-83
2021/07/24 02:01:30;;;;;;;16.03;14.20;;;;;;;15.58;82.19;98857.50;124866;1092;64220;-83
2021/07/24 02:04:15;;;;;;;17.67;15.67;;;;;;;15.57;82.70;98862.03;124991;1093;64239;-83
2021/07/24 02:06:43;;;;;;;23.33;16.97;;;;;;;15.56;82.62;98852.28;124895;1093;64238;-83
2021/07/24 02:09:11;;;;;;;20.70;16.35;;;;;;;15.50;82.73;98858.19;124826;1093;64411;-83
2021/07/24 02:11:39;;;;;;;18.70;16.70;;;;;;;15.47;83.04;98865.68;124879;1093;64361;-83
2021/07/24 02:14:06;;;;;;;17.83;15.93;;;;;;;15.47;83.31;98860.30;124893;1093;64241;-83
2021/07/24 02:16:34;;;;;;;18.70;16.03;;;;;;;15.46;83.30;98869.36;124858;1093;64340;-83
2021/07/24 02:19:02;;;;;;;19.63;17.43;;;;;;;15.46;83.81;98856.78;124920;1093;64287;-83
2021/07/24 02:21:32;;;;;;;23.45;18.60;;;;;;;15.47;83.60;98857.63;124844;1093;64435;-83
2021/07/24 02:24:00;;;;;;;19.05;17.05;;;;;;;15.44;83.97;98858.74;124868;1093;64359;-83
2021/07/24 02:26:27;;;;;;;21.20;18.90;;;;;;;15.44;84.23;98863.27;124899;1093;64279;-83
2021/07/24 02:28:54;;;;;;;22.10;19.73;;;;;;;15.41;84.18;98864.39;124873;1093;64194;-83
2021/07/24 02:31:21;;;;;;;20.33;18.23;;;;;;;15.42;84.05;98860.71;124843;1093;64213;-83
2021/07/24 02:33:48;;;;;;;19.77;17.50;;;;;;;15.41;83.79;98863.55;124844;1093;64421;-83
2021/07/24 02:36:15;;;;;;;20.15;18.15;;;;;;;15.39;84.06;98865.52;124863;1092;64315;-83
2021/07/24 02:38:42;;;;;;;18.23;16.37;;;;;;;15.36;83.90;98862.11;124842;1092;64268;-83
2021/07/24 02:41:09;;;;;;;19.65;17.55;;;;;;;15.36;83.77;98872.85;124918;1093;64207;-83
2021/07/24 02:43:37;;;;;;;19.20;17.07;;;;;;;15.34;83.98;98869.45;124889;1091;64265;-83
2021/07/24 02:46:04;;;;;;;19.37;17.37;;;;;;;15.32;83.99;98868.76;124919;1093;64344;-84
2021/07/24 02:48:31;;;;;;;20.43;17.57;;;;;;;15.34;83.91;98865.91;124854;1092;64348;-83
2021/07/24 02:50:58;;;;;;;22.30;18.57;;;;;;;15.31;84.24;98867.03;124903;1093;64287;-83
2021/07/24 02:53:25;;;;;;;19.05;17.00;;;;;;;15.25;84.25;98861.38;124919;1093;64277;-84
2021/07/24 02:55:52;;;;;;;20.57;17.50;;;;;;;15.22;84.22;98867.87;124865;1093;64281;-83
2021/07/24 02:58:19;;;;;;;19.50;17.53;;;;;;;15.22;84.03;98866.99;124937;1093;64357;-83
2021/07/24 03:00:46;;;;;;;20.23;18.13;;;;;;;15.20;84.15;98861.77;124932;1092;64521;-83
2021/07/24 03:03:13;;;;;;;18.17;16.37;;;;;;;15.16;84.17;98865.70;124816;1093;64219;-84
2021/07/24 03:05:42;;;;;;;17.53;15.87;;;;;;;15.14;84.17;98873.06;124939;1093;64287;-84
2021/07/24 03:08:09;;;;;;;17.65;15.95;;;;;;;15.11;84.01;98873.30;124925;1093;64187;-86
2021/07/24 03:10:36;;;;;;;18.37;16.57;;;;;;;15.08;83.80;98862.84;125009;1092;64427;-83
2021/07/24 03:13:04;;;;;;;18.07;16.27;;;;;;;15.00;83.85;98866.20;125063;1093;64354;-82
2021/07/24 03:15:31;;;;;;;18.85;15.60;;;;;;;14.93;84.25;98862.38;125267;1093;64188;-82
2021/07/24 03:17:58;;;;;;;17.45;15.65;;;;;;;14.98;84.09;98865.50;125271;1091;64268;-83
2021/07/24 03:20:25;;;;;;;17.83;15.27;;;;;;;15.02;84.25;98864.23;124923;1093;64266;-83
2021/07/24 03:22:53;;;;;;;16.73;15.00;;;;;;;15.06;84.25;98863.00;124816;1093;64341;-83
2021/07/24 03:25:20;;;;;;;19.70;15.83;;;;;;;15.14;84.43;98859.64;124867;1093;64422;-83
2021/07/24 03:27:48;;;;;;;19.60;15.50;;;;;;;15.19;84.34;98859.21;124847;1093;64634;-83
2021/07/24 03:30:15;;;;;;;17.53;15.63;;;;;;;15.24;84.05;98856.97;124887;1093;64288;-84
2021/07/24 03:32:42;;;;;;;18.50;16.57;;;;;;;15.31;84.24;98860.82;124852;1093;64284;-84
2021/07/24 03:35:09;;;;;;;18.33;16.37;;;;;;;15.56;83.70;98857.66;124816;1093;64386;-83
2021/07/24 03:37:36;;;;;;;19.10;15.57;;;;;;;15.89;83.22;98860.98;124890;1093;64409;-84
2021/07/24 03:40:04;;;;;;;16.47;14.87;;;;;;;16.19;82.77;98854.65;124882;1093;64307;-83
2021/07/24 03:42:32;;;;;;;16.67;15.07;;;;;;;16.54;82.45;98855.05;124910;1093;64267;-84
2021/07/24 03:44:59;;;;;;;17.53;15.73;;;;;;;16.86;81.52;98860.94;124869;1093;64301;-84
2021/07/24 03:47:26;;;;;;;16.07;14.27;;;;;;;17.14;80.90;98852.05;124873;1092;64290;-84
2021/07/24 03:49:54;;;;;;;16.90;15.03;;;;;;;17.42;80.38;98851.08;124872;1093;64361;-84
2021/07/24 03:52:21;;;;;;;16.13;14.70;;;;;;;17.80;79.30;98865.38;124843;1093;64284;-84
2021/07/24 03:54:48;;;;;;;17.60;15.80;;;;;;;18.14;79.14;98856.59;124836;1093;64268;-84
2021/07/24 03:57:15;;;;;;;16.47;14.83;;;;;;;18.40;77.91;98862.05;124901;1093;64281;-84
2021/07/24 03:59:42;;;;;;;15.60;13.80;;;;;;;18.67;77.41;98857.53;124886;1093;64273;-84
2021/07/24 04:02:12;;;;;;;24.17;15.40;;;;;;;19.01;76.85;98854.92;124868;1093;64359;-84
2021/07/24 04:04:40;;;;;;;16.13;14.50;;;;;;;19.34;76.12;98858.65;124866;1093;64269;-84
2021/07/24 04:07:07;;;;;;;18.47;16.67;;;;;;;19.61;75.74;98856.72;124868;1094;64284;-84
2021/07/24 04:09:34;;;;;;;16.63;14.93;;;;;;;19.89;74.68;98857.36;124863;1093;64287;-84
2021/07/24 04:12:01;;;;;;;16.75;15.00;;;;;;;20.13;73.91;98861.96;124928;1093;64406;-84
2021/07/24 04:14:29;;;;;;;17.90;16.20;;;;;;;20.43;73.49;98859.61;124854;1091;64329;-84
2021/07/24 04:16:56;;;;;;;19.40;17.60;;;;;;;20.71;73.10;98852.02;124839;1093;64241;-84
2021/07/24 04:19:23;;;;;;;17.83;16.03;;;;;;;21.04;72.26;98841.98;124878;1093;64205;-84
2021/07/24 04:21:50;;;;;;;17.90;16.10;;;;;;;21.38;71.63;98847.16;124904;1093;64210;-84
2021/07/24 04:24:18;;;;;;;20.40;18.23;;;;;;;21.21;71.04;98845.47;124863;1093;64422;-84
2021/07/24 04:26:45;;;;;;;19.93;18.03;;;;;;;21.08;71.65;98851.44;124885;1093;64276;-84
2021/07/24 04:29:12;;;;;;;17.70;15.85;;;;;;;20.94;71.70;98844.03;124876;1092;64264;-84
2021/07/24 04:31:39;;;;;;;17.40;15.70;;;;;;;21.27;70.54;98852.89;124884;1092;64268;-84
2021/07/24 04:34:06;;;;;;;19.40;17.60;;;;;;;21.48;70.01;98850.50;124894;1093;64273;-85
2021/07/24 04:36:33;;;;;;;18.80;17.00;;;;;;;21.56;69.49;98844.17;124864;1093;64389;-84
2021/07/24 04:39:00;;;;;;;21.97;17.73;;;;;;;21.54;69.25;98846.23;124897;1092;64434;-85
2021/07/24 04:41:27;;;;;;;23.20;20.05;;;;;;;21.75;68.88;98844.75;124897;1093;64276;-86
2021/07/24 04:43:55;;;;;;;27.27;21.73;;;;;;;21.75;69.25;98845.63;124859;1093;64196;-83
2021/07/24 04:46:22;;;;;;;24.93;20.93;;;;;;;21.63;69.09;98856.00;124889;1093;64230;-83
2021/07/24 04:48:49;;;;;;;27.90;22.00;;;;;;;21.45;69.59;98845.41;124889;1093;64425;-83
2021/07/24 04:51:16;;;;;;;24.33;22.00;;;;;;;21.88;69.14;98843.17;124890;1093;64241;-83
2021/07/24 04:53:46;;;;;;;28.83;24.47;;;;;;;22.29;68.22;98840.19;124888;1093;64347;-83
2021/07/24 04:56:14;;;;;;;24.17;21.50;;;;;;;22.68;67.57;98838.34;124914;1093;64282;-83
2021/07/24 04:58:41;;;;;;;25.25;22.60;;;;;;;23.11;67.21;98841.33;124915;1093;64264;-83
2021/07/24 05:01:09;;;;;;;24.63;22.40;;;;;;;23.50;66.68;98841.03;124875;1093;64606;-84
2021/07/24 05:03:36;;;;;;;25.05;22.65;;;;;;;23.91;66.69;98840.52;124930;1093;64265;-83
2021/07/24 05:06:05;;;;;;;26.57;24.20;;;;;;;24.35;65.98;98841.38;124860;1093;64377;-83
2021/07/24 05:08:36;;;;;;;24.57;22.30;;;;;;;24.68;65.52;98841.71;124865;1093;64245;-83
2021/07/24 05:11:04;;;;;;;24.30;22.30;;;;;;;24.84;64.52;98835.96;124902;1093;64377;-83
2021/07/24 05:13:31;;;;;;;23.70;21.47;;;;;;;24.92;64.26;98846.71;124887;1093;64273;-83
2021/07/24 05:15:58;;;;;;;23.30;21.20;;;;;;;25.07;63.48;98845.78;124850;1093;64257;-84
2021/07/24 05:18:27;;;;;;;23.87;21.77;;;;;;;25.14;63.41;98842.02;124920;1093;64264;-83
2021/07/24 05:20:54;;;;;;;24.17;21.97;;;;;;;25.43;63.58;98834.66;124860;1093;64267;-84
2021/07/24 05:23:21;;;;;;;24.53;22.33;;;;;;;25.70;62.39;98837.51;124870;1093;64268;-83
2021/07/24 05:25:49;;;;;;;23.93;21.93;;;;;;;25.47;62.56;98833.23;124846;1093;64261;-84
2021/07/24 05:28:16;;;;;;;23.83;21.57;;;;;;;25.57;62.07;98833.70;124892;1093;64274;-83
2021/07/24 05:30:43;;;;;;;24.30;22.10;;;;;;;25.33;62.21;98832.33;124856;1093;64338;-82
2021/07/24 05:33:10;;;;;;;23.20;21.00;;;;;;;24.88;62.26;98833.67;124833;1093;64810;-83
2021/07/24 05:35:37;;;;;;;24.53;22.23;;;;;;;24.91;62.21;98834.13;124897;1093;64374;-80
2021/07/24 05:38:04;;;;;;;22.60;20.43;;;;;;;24.79;62.59;98834.88;124871;1093;64351;-81
2021/07/24 05:40:31;;;;;;;24.63;22.33;;;;;;;24.79;62.53;98834.88;124863;1093;64406;-81
2021/07/24 05:43:02;;;;;;;24.17;21.97;;;;;;;25.14;61.74;98824.83;124846;1093;64261;-82
2021/07/24 05:45:29;;;;;;;24.10;21.80;;;;;;;25.12;61.66;98835.09;124888;1093;64280;-81
2021/07/24 05:47:56;;;;;;;24.97;22.37;;;;;;;25.54;60.73;98827.79;124866;1093;64306;-82
2021/07/24 05:50:23;;;;;;;22.57;20.47;;;;;;;25.89;60.43;98830.49;124827;1093;64188;-83
2021/07/24 05:52:50;;;;;;;22.43;20.13;;;;;;;26.20;59.38;98825.31;124828;1093;64357;-82
2021/07/24 05:55:18;;;;;;;21.07;19.27;;;;;;;26.49;58.42;98823.24;124888;1093;64281;-83
2021/07/24 05:57:45;;;;;;;23.27;21.07;;;;;;;26.82;58.58;98831.45;124887;1093;64271;-83
2021/07/24 06:00:12;;;;;;;21.83;19.70;;;;;;;26.99;57.97;98822.80;124848;1093;64276;-83
2021/07/24 06:02:40;;;;;;;21.77;19.77;;;;;;;27.01;58.00;98829.73;124883;1092;64375;-83
2021/07/24 06:05:07;;;;;;;21.93;20.03;;;;;;;27.08;58.14;98825.11;124873;1093;64375;-83
2021/07/24 06:07:34;;;;;;;23.33;21.23;;;;;;;27.52;57.08;98825.45;124865;1093;64268;-83
2021/07/24 06:10:02;;;;;;;23.43;21.23;;;;;;;27.61;56.37;98821.40;124862;1093;64281;-83
2021/07/24 06:12:29;;;;;;;21.47;19.47;;;;;;;27.65;56.03;98821.80;124892;1093;64313;-83
2021/07/24 06:14:56;;;;;;;21.30;19.50;;;;;;;27.44;55.37;98821.05;124819;1093;64372;-83
2021/07/24 06:17:23;;;;;;;19.20;17.33;;;;;;;27.46;56.06;98827.16;124890;1093;64267;-83
2021/07/24 06:19:50;;;;;;;19.93;18.03;;;;;;;27.28;56.02;98822.37;124891;1093;64771;-83
2021/07/24 06:22:17;;;;;;;19.57;17.67;;;;;;;26.79;56.22;98822.84;124883;1093;64296;-83
2021/07/24 06:24:45;;;;;;;19.63;17.73;;;;;;;26.81;56.46;98827.05;124833;1093;64233;-82
2021/07/24 06:27:12;;;;;;;19.70;17.93;;;;;;;27.13;56.01;98827.21;124834;1093;64281;-83
2021/07/24 06:29:39;;;;;;;19.27;17.30;;;;;;;27.41;55.44;98813.28;124898;1093;64415;-83
2021/07/24 06:32:07;;;;;;;17.23;15.67;;;;;;;27.61;55.31;98818.66;124881;1093;64334;-83
2021/07/24 06:34:34;;;;;;;17.73;16.07;;;;;;;27.74;54.78;98825.98;124900;1093;64274;-83
2021/07/24 06:37:02;;;;;;;19.03;17.07;;;;;;;27.87;54.46;98822.38;124861;1093;64216;-83
2021/07/24 06:39:29;;;;;;;18.03;16.50;;;;;;;27.99;54.74;98823.37;124847;1093;64297;-83
2021/07/24 06:41:56;;;;;;;19.03;17.17;;;;;;;28.26;54.42;98823.20;124852;1093;64769;-83
2021/07/24 06:44:23;;;;;;;19.77;16.97;;;;;;;28.40;53.30;98828.34;124865;1093;64245;-83
2021/07/24 06:46:51;;;;;;;18.27;16.47;;;;;;;28.45;53.60;98825.81;124905;1094;64250;-83
2021/07/24 06:49:19;;;;;;;18.00;16.03;;;;;;;28.54;53.44;98820.05;124935;1091;65470;-83
2021/07/24 06:51:46;;;;;;;18.37;15.77;;;;;;;28.45;52.96;98827.72;124890;1093;64442;-83
2021/07/24 06:54:14;;;;;;;17.67;15.97;;;;;;;28.47;53.52;98817.38;124930;1092;64284;-81
2021/07/24 06:56:41;;;;;;;18.87;17.27;;;;;;;28.62;52.61;98820.63;124890;1093;64215;-81
2021/07/24 06:59:08;;;;;;;17.97;16.23;;;;;;;28.68;52.74;98813.41;124864;1093;64265;-81
2021/07/24 07:01:35;;;;;;;17.37;15.87;;;;;;;28.61;52.88;98823.58;124879;1093;64296;-82
2021/07/24 07:04:04;;;;;;;17.13;15.70;;;;;;;28.54;52.77;98817.30;124861;1093;64353;-82
2021/07/24 07:06:31;;;;;;;;;;;;;;;28.52;52.25;98816.71;124899;1093;64686;-84
2021/07/24 07:08:58;;;;;;;16.47;14.97;;;;;;;28.47;52.51;98814.63;124910;1093;64217;-85
2021/07/24 07:11:25;;;;;;;18.63;16.97;;;;;;;28.36;52.54;98810.68;124874;1093;64268;-84
2021/07/24 07:13:53;;;;;;;18.80;17.10;;;;;;;28.52;52.52;98814.80;124890;1093;64299;-85
2021/07/24 07:16:21;;;;;;;17.43;15.83;;;;;;;28.56;52.47;98818.77;125028;1093;64399;-84
2021/07/24 07:18:48;;;;;;;16.43;14.93;;;;;;;28.54;52.25;98818.17;124901;1093;64412;-84
2021/07/24 07:21:15;;;;;;;17.40;15.77;;;;;;;28.50;52.01;98822.41;124820;1093;64268;-82
2021/07/24 07:23:42;;;;;;;18.13;16.53;;;;;;;28.44;52.14;98821.41;124866;1093;64200;-85
2021/07/24 07:26:12;;;;;;;16.50;15.03;;;;;;;28.23;52.01;98819.00;124902;1093;64213;-84
2021/07/24 07:28:39;;;;;;;17.53;15.73;;;;;;;27.76;52.12;98823.87;124843;1093;64583;-81
2021/07/24 07:31:06;;;;;;;17.03;15.37;;;;;;;27.27;52.83;98828.05;124883;1093;64251;-82
2021/07/24 07:33:33;;;;;;;18.50;16.57;;;;;;;27.04;53.75;98828.47;124879;1093;64187;-82
2021/07/24 07:36:00;;;;;;;16.87;14.47;;;;;;;26.96;54.11;98824.06;124878;1093;64359;-81
2021/07/24 07:38:28;;;;;;;17.60;15.80;;;;;;;26.97;54.91;98828.50;124864;1093;64307;-82
2021/07/24 07:40:55;;;;;;;15.70;14.30;;;;;;;26.90;54.72;98819.45;124833;1093;64196;-82
2021/07/24 07:43:22;;;;;;;16.60;15.10;;;;;;;26.94;55.17;98820.73;124920;1093;64185;-81
2021/07/24 07:45:49;;;;;;;16.63;15.17;;;;;;;27.03;55.29;98822.17;124905;1093;64271;-82
2021/07/24 07:48:16;;;;;;;16.40;14.73;;;;;;;27.04;55.29;98825.73;124883;1093;64265;-81
2021/07/24 07:50:43;;;;;;;17.47;15.23;;;;;;;27.00;54.62;98821.77;124865;1093;64274;-81
2021/07/24 07:53:11;;;;;;;15.63;14.23;;;;;;;26.85;55.20;98813.78;124875;1093;64383;-81
2021/07/24 07:55:41;;;;;;;15.57;14.17;;;;;;;26.78;55.36;98815.67;124843;1094;64265;-81
2021/07/24 07:58:16;;;;;;;13.97;12.70;;;;;;;26.73;54.85;98818.23;124874;1093;64769;-81
2021/07/24 08:00:43;;;;;;;12.90;11.80;;;;;;;26.72;54.77;98822.83;124868;1093;64280;-83
2021/07/24 08:03:11;;;;;;;13.67;12.43;;;;;;;26.68;54.04;98819.69;124882;1093;64287;-81
2021/07/24 08:05:38;;;;;;;13.67;12.47;;;;;;;26.60;54.29;98817.17;124889;1093;64290;-81
2021/07/24 08:08:05;;;;;;;12.90;11.50;;;;;;;26.63;54.95;98822.21;124874;1093;64287;-81
2021/07/24 08:10:34;;;;;;;13.57;12.13;;;;;;;26.67;54.63;98814.42;124854;1093;64267;-81
2021/07/24 08:13:15;;;;;;;13.17;11.97;;;;;;;26.60;54.26;98813.61;124873;1093;64383;-81
2021/07/24 08:15:44;;;;;;;12.77;11.47;;;;;;;26.49;55.07;98812.31;124923;1093;64217;-82
2021/07/24 08:18:12;;;;;;;14.00;12.70;;;;;;;26.59;55.29;98801.80;124882;1093;64188;-82
2021/07/24 08:20:40;;;;;;;13.53;12.33;;;;;;;26.64;54.88;98809.38;124878;1093;64306;-82
2021/07/24 08:23:13;;;;;;;13.47;12.23;;;;;;;26.63;54.57;98808.55;124863;1093;64261;-81
2021/07/24 08:25:42;;;;;;;13.07;11.73;;;;;;;26.71;54.53;98799.30;124910;1093;64264;-81
2021/07/24 08:28:10;;;;;;;13.97;12.57;;;;;;;26.78;53.89;98799.27;124969;1093;64185;-81
2021/07/24 08:30:37;;;;;;;13.67;12.47;;;;;;;26.67;53.59;98795.28;124891;1093;64191;-81
2021/07/24 08:33:04;;;;;;;13.30;12.00;;;;;;;26.59;54.06;98795.50;124798;1093;64373;-81
2021/07/24 08:35:32;;;;;;;12.07;10.93;;;;;;;26.62;53.29;98797.81;125013;1093;64306;-81
2021/07/24 08:37:59;;;;;;;13.33;11.30;;;;;;;26.60;53.82;98803.50;124833;1093;64271;-81
2021/07/24 08:40:26;;;;;;;11.35;10.35;;;;;;;26.61;52.86;98813.38;124855;1093;64300;-81
2021/07/24 08:42:53;;;;;;;10.97;9.90;;;;;;;26.57;52.90;98806.66;124902;1093;64329;-81
2021/07/24 08:45:20;;;;;;;11.97;10.83;;;;;;;26.61;52.43;98812.54;124885;1093;64364;-81
2021/07/24 08:47:48;;;;;;;11.30;10.20;;;;;;;26.63;52.71;98799.52;124899;1093;64341;-81
2021/07/24 08:50:17;;;;;;;11.47;10.30;;;;;;;26.74;52.50;98793.39;124907;1093;64187;-82
2021/07/24 08:52:49;;;;;;;10.90;9.87;;;;;;;26.85;52.67;98787.27;124838;1093;64247;-81
2021/07/24 08:55:16;;;;;;;9.90;9.00;;;;;;;27.00;52.85;98788.94;124852;1093;64315;-82
2021/07/24 08:57:43;;;;;;;11.40;10.20;;;;;;;27.18;52.88;98786.41;124858;1093;64302;-82
2021/07/24 09:00:13;;;;;;;11.80;10.53;;;;;;;27.38;53.37;98777.27;124884;1093;64262;-82
2021/07/24 09:02:45;;;;;;;12.53;11.23;;;;;;;27.46;52.51;98779.77;124885;1093;64284;-82
2021/07/24 09:05:15;;;;;;;14.00;12.60;;;;;;;27.54;53.07;98777.64;124910;1093;64365;-82
2021/07/24 09:07:45;;;;;;;12.63;11.43;;;;;;;27.68;52.75;98772.09;124894;1093;64333;-81
2021/07/24 09:10:13;;;;;;;11.55;10.30;;;;;;;27.67;51.26;98773.14;124947;1093;64271;-82
2021/07/24 09:12:42;;;;;;;13.83;10.23;;;;;;;27.49;50.73;98782.92;124902;1093;64287;-81
2021/07/24 09:15:11;;;;;;;11.03;9.50;;;;;;;27.36;50.09;98780.24;124938;1093;64284;-82
2021/07/24 09:17:39;;;;;;;11.87;10.77;;;;;;;27.34;51.07;98776.88;124895;1093;64284;-82
2021/07/24 09:20:07;;;;;;;11.75;10.60;;;;;;;27.45;50.95;98780.83;124865;1093;64252;-82
2021/07/24 09:22:37;;;;;;;12.60;10.40;;;;;;;27.58;50.82;98784.34;124900;1093;64303;-82
2021/07/24 09:25:14;;;;;;;12.37;9.97;;;;;;;27.62;50.59;98772.95;124907;1092;64268;-82
2021/07/24 09:27:55;;;;;;;10.23;9.33;;;;;;;27.78;50.43;98775.20;124905;1093;64372;-82
2021/07/24 09:30:28;;;;;;;11.00;9.77;;;;;;;27.63;49.48;98771.91;124910;1093;64268;-82
2021/07/24 09:33:13;;;;;;;11.10;10.10;;;;;;;27.61;49.57;98782.23;124968;1093;64297;-82
2021/07/24 09:35:41;;;;;;;10.93;9.70;;;;;;;27.73;50.61;98775.86;124892;1093;64248;-82
2021/07/24 09:38:11;;;;;;;10.50;9.50;;;;;;;27.90;50.59;98775.36;124897;1093;64184;-82
2021/07/24 09:40:40;;;;;;;10.90;9.37;;;;;;;28.10;50.66;98767.86;124866;1093;64191;-82
2021/07/24 09:43:28;;;;;;;10.60;9.23;;;;;;;28.23;49.37;98766.93;124856;1093;64295;-82
2021/07/24 09:46:09;;;;;;;10.43;9.43;;;;;;;28.22;49.48;98770.71;124907;1093;64455;-82
2021/07/24 09:48:37;;;;;;;9.40;8.50;;;;;;;28.34;48.87;98777.16;124906;1093;64438;-82
2021/07/24 09:51:04;;;;;;;10.10;9.10;;;;;;;28.19;46.58;98760.20;124886;1093;64284;-82
2021/07/24 09:53:36;;;;;;;10.60;9.57;;;;;;;27.83;46.68;98763.60;124863;1092;64264;-82
2021/07/24 09:56:04;;;;;;;10.33;9.27;;;;;;;27.76;47.78;98748.03;124889;1091;64265;-82
2021/07/24 09:58:31;;;;;;;10.13;9.13;;;;;;;27.91;48.52;98744.16;124927;1093;64363;-82
2021/07/24 10:01:07;;;;;;;9.50;8.70;;;;;;;28.16;48.90;98741.47;124872;1093;64242;-82
2021/07/24 10:03:37;;;;;;;9.87;8.77;;;;;;;28.31;48.43;98736.50;124851;1093;64245;-81
2021/07/24 10:06:11;;;;;;;;;;;;;;;28.45;49.04;98743.56;124977;1093;64265;-82
2021/07/24 10:08:44;;;;;;;9.70;8.80;;;;;;;28.66;49.10;98725.86;124836;1093;64299;-82
2021/07/24 10:11:11;;;;;;;9.70;8.77;;;;;;;28.91;48.63;98740.59;124887;1092;64398;-81
2021/07/24 10:13:40;;;;;;;10.10;9.30;;;;;;;29.10;48.28;98732.18;124877;1093;64297;-82
2021/07/24 10:16:07;;;;;;;9.23;8.27;;;;;;;29.23;47.38;98730.35;124873;1093;64344;-82
2021/07/24 10:18:35;;;;;;;10.07;9.17;;;;;;;29.18;46.69;98728.29;124871;1092;64238;-82
2021/07/24 10:21:03;;;;;;;8.93;8.13;;;;;;;28.98;44.71;98722.98;124883;1093;64242;-82
2021/07/24 10:23:33;;;;;;;9.40;8.60;;;;;;;28.92;45.04;98726.66;124911;1093;64482;-82
2021/07/24 10:26:14;;;;;;;9.73;8.83;;;;;;;29.04;46.56;98721.23;124881;1093;64425;-82
2021/07/24 10:28:47;;;;;;;8.87;8.07;;;;;;;29.18;45.27;98731.03;124898;1093;64296;-82
2021/07/24 10:31:26;;;;;;;9.57;8.33;;;;;;;29.27;44.48;98720.57;124876;1093;64727;-81
2021/07/24 10:33:56;;;;;;;8.60;7.80;;;;;;;29.42;45.36;98722.92;124882;1093;64221;-84
2021/07/24 10:36:39;;;;;;;8.20;7.57;;;;;;;29.53;44.29;98724.88;124935;1093;64709;-82
2021/07/24 10:39:18;;;;;;;8.07;7.37;;;;;;;29.28;40.48;98722.23;124810;1093;64342;-82
2021/07/24 10:41:50;;;;;;;8.08;7.38;;;;;;;29.06;39.64;98725.45;124852;1093;64384;-83
2021/07/24 10:44:42;;;;;;;9.15;7.80;;;;;;;29.02;41.06;98721.48;124907;1093;64265;-82
2021/07/24 10:47:10;;;;;;;8.63;7.83;;;;;;;29.19;41.82;98729.13;124893;1093;64281;-82
2021/07/24 10:49:54;;;;;;;9.30;8.10;;;;;;;29.22;41.27;98721.25;124839;1093;64300;-84
2021/07/24 10:52:22;;;;;;;8.50;7.67;;;;;;;29.20;40.20;98728.91;124920;1093;64271;-83
2021/07/24 10:54:52;;;;;;;8.70;8.03;;;;;;;29.23;40.93;98722.95;124888;1093;64287;-86
2021/07/24 10:57:49;;;;;;;9.40;8.47;;;;;;;29.26;40.20;98722.48;124918;1093;64389;-83
2021/07/24 11:00:16;;;;;;;7.80;7.10;;;;;;;29.40;40.20;98723.14;124908;1093;64261;-84
2021/07/24 11:02:45;;;;;;;8.90;8.10;;;;;;;29.53;40.88;98719.39;124851;1093;64220;-81
2021/07/24 11:05:29;;;;;;;7.73;7.13;;;;;;;29.53;40.56;98720.22;124905;1093;64220;-83
2021/07/24 11:07:58;;;;;;;8.93;8.13;;;;;;;29.54;41.00;98715.55;124840;1093;64267;-84
2021/07/24 11:10:26;;;;;;;8.67;7.97;;;;;;;29.53;40.05;98722.96;124906;1093;64272;-83
2021/07/24 11:12:54;;;;;;;8.97;8.17;;;;;;;29.39;38.94;98712.41;124894;1093;64287;-82
2021/07/24 11:15:44;;;;;;;9.57;8.63;;;;;;;29.21;39.37;98716.84;124873;1093;64372;-82
2021/07/24 11:18:26;;;;;;;9.27;8.47;;;;;;;29.17;40.21;98712.88;124790;1093;64310;-82
2021/07/24 11:20:54;;;;;;;9.20;8.40;;;;;;;29.07;41.00;98718.92;124894;1093;64338;-82
2021/07/24 11:23:23;;;;;;;10.03;8.00;;;;;;;29.10;40.36;98707.48;124941;1093;64360;-82